sensor_id;sensor_type;location;lat;lon;timestamp;temperature;humidity
6008;DHT22;3032;49.484;11.112;2023-05-19T00:01:57;13.50;90.90
6008;DHT22;3032;49.484;11.112;2023-05-19T00:04:25;13.50;90.30
6008;DHT22;3032;49.484;11.112;2023-05-19T00:06:52;13.40;90.80
6008;DHT22;3032;49.484;11.112;2023-05-19T00:09:18;13.40;90.80
6008;DHT22;3032;49.484;11.112;2023-05-19T00:11:44;13.50;90.90
6008;DHT22;3032;49.484;11.112;2023-05-19T00:14:10;13.60;90.50
6008;DHT22;3032;49.484;11.112;2023-05-19T00:16:36;13.60;90.90
6008;DHT22;3032;49.484;11.112;2023-05-19T00:19:03;13.50;90.60
6008;DHT22;3032;49.484;11.112;2023-05-19T00:21:30;13.40;90.90
6008;DHT22;3032;49.484;11.112;2023-05-19T00:23:56;13.20;91.50
6008;DHT22;3032;49.484;11.112;2023-05-19T00:26:23;13.10;92.10
6008;DHT22;3032;49.484;11.112;2023-05-19T00:28:49;12.80;92.10
6008;DHT22;3032;49.484;11.112;2023-05-19T00:31:15;13.30;91.80
6008;DHT22;3032;49.484;11.112;2023-05-19T00:33:41;13.30;92.10
6008;DHT22;3032;49.484;11.112;2023-05-19T00:36:07;13.30;92.40
6008;DHT22;3032;49.484;11.112;2023-05-19T00:38:34;13.40;92.60
6008;DHT22;3032;49.484;11.112;2023-05-19T00:41:01;13.50;92.30
6008;DHT22;3032;49.484;11.112;2023-05-19T00:43:27;13.50;92.30
6008;DHT22;3032;49.484;11.112;2023-05-19T00:45:54;13.50;92.30
6008;DHT22;3032;49.484;11.112;2023-05-19T00:48:20;13.50;92.00
6008;DHT22;3032;49.484;11.112;2023-05-19T00:50:47;13.50;92.50
6008;DHT22;3032;49.484;11.112;2023-05-19T00:53:13;13.50;92.50
6008;DHT22;3032;49.484;11.112;2023-05-19T00:55:41;13.50;91.80
6008;DHT22;3032;49.484;11.112;2023-05-19T00:58:09;13.40;91.60
6008;DHT22;3032;49.484;11.112;2023-05-19T01:00:35;13.40;91.60
6008;DHT22;3032;49.484;11.112;2023-05-19T01:03:01;13.40;91.30
6008;DHT22;3032;49.484;11.112;2023-05-19T01:05:27;13.40;91.40
6008;DHT22;3032;49.484;11.112;2023-05-19T01:07:54;13.40;92.10
6008;DHT22;3032;49.484;11.112;2023-05-19T01:10:21;13.50;92.50
6008;DHT22;3032;49.484;11.112;2023-05-19T01:12:48;13.40;92.30
6008;DHT22;3032;49.484;11.112;2023-05-19T01:15:14;13.50;92.20
6008;DHT22;3032;49.484;11.112;2023-05-19T01:20:36;13.40;92.80
6008;DHT22;3032;49.484;11.112;2023-05-19T01:23:37;13.40;92.40
6008;DHT22;3032;49.484;11.112;2023-05-19T01:31:24;13.40;92.40
6008;DHT22;3032;49.484;11.112;2023-05-19T01:33:52;13.30;92.60
6008;DHT22;3032;49.484;11.112;2023-05-19T01:36:20;13.30;92.80
6008;DHT22;3032;49.484;11.112;2023-05-19T01:38:50;13.30;92.80
6008;DHT22;3032;49.484;11.112;2023-05-19T01:41:18;13.40;93.20
6008;DHT22;3032;49.484;11.112;2023-05-19T01:43:44;13.40;94.40
6008;DHT22;3032;49.484;11.112;2023-05-19T01:46:11;13.30;93.40
6008;DHT22;3032;49.484;11.112;2023-05-19T01:48:36;13.30;93.40
6008;DHT22;3032;49.484;11.112;2023-05-19T01:51:02;13.30;93.90
6008;DHT22;3032;49.484;11.112;2023-05-19T01:53:28;13.40;94.10
6008;DHT22;3032;49.484;11.112;2023-05-19T01:55:55;13.30;93.90
6008;DHT22;3032;49.484;11.112;2023-05-19T02:03:41;13.20;94.10
6008;DHT22;3032;49.484;11.112;2023-05-19T02:11:29;13.20;94.30
6008;DHT22;3032;49.484;11.112;2023-05-19T02:14:01;13.20;94.20
6008;DHT22;3032;49.484;11.112;2023-05-19T02:16:28;12.90;93.70
6008;DHT22;3032;49.484;11.112;2023-05-19T02:18:54;13.20;93.80
6008;DHT22;3032;49.484;11.112;2023-05-19T02:21:20;13.20;94.20
6008;DHT22;3032;49.484;11.112;2023-05-19T02:23:47;13.20;94.00
6008;DHT22;3032;49.484;11.112;2023-05-19T02:26:13;13.20;94.10
6008;DHT22;3032;49.484;11.112;2023-05-19T02:28:38;13.10;94.20
6008;DHT22;3032;49.484;11.112;2023-05-19T02:31:04;13.10;94.00
6008;DHT22;3032;49.484;11.112;2023-05-19T02:33:33;13.10;94.20
6008;DHT22;3032;49.484;11.112;2023-05-19T02:35:58;13.20;94.00
6008;DHT22;3032;49.484;11.112;2023-05-19T02:38:24;13.30;93.80
6008;DHT22;3032;49.484;11.112;2023-05-19T02:40:51;13.50;94.10
6008;DHT22;3032;49.484;11.112;2023-05-19T02:43:17;13.30;94.60
6008;DHT22;3032;49.484;11.112;2023-05-19T02:45:43;13.20;94.30
6008;DHT22;3032;49.484;11.112;2023-05-19T02:48:08;13.10;94.50
6008;DHT22;3032;49.484;11.112;2023-05-19T02:50:34;13.00;94.60
6008;DHT22;3032;49.484;11.112;2023-05-19T02:53:00;13.00;94.80
6008;DHT22;3032;49.484;11.112;2023-05-19T02:55:27;13.10;94.40
6008;DHT22;3032;49.484;11.112;2023-05-19T02:57:52;13.00;94.70
6008;DHT22;3032;49.484;11.112;2023-05-19T03:00:18;12.90;94.90
6008;DHT22;3032;49.484;11.112;2023-05-19T03:02:44;12.70;95.20
6008;DHT22;3032;49.484;11.112;2023-05-19T03:05:10;12.80;95.40
6008;DHT22;3032;49.484;11.112;2023-05-19T03:07:36;12.60;95.80
6008;DHT22;3032;49.484;11.112;2023-05-19T03:10:01;12.60;96.00
6008;DHT22;3032;49.484;11.112;2023-05-19T03:12:28;12.60;96.10
6008;DHT22;3032;49.484;11.112;2023-05-19T03:14:54;12.70;95.70
6008;DHT22;3032;49.484;11.112;2023-05-19T03:17:19;12.80;96.00
6008;DHT22;3032;49.484;11.112;2023-05-19T03:19:45;12.70;95.60
6008;DHT22;3032;49.484;11.112;2023-05-19T03:22:10;12.60;95.80
6008;DHT22;3032;49.484;11.112;2023-05-19T03:24:36;12.80;95.70
6008;DHT22;3032;49.484;11.112;2023-05-19T03:27:02;12.80;95.50
6008;DHT22;3032;49.484;11.112;2023-05-19T03:29:29;12.80;95.30
6008;DHT22;3032;49.484;11.112;2023-05-19T03:31:55;13.00;95.60
6008;DHT22;3032;49.484;11.112;2023-05-19T03:34:20;13.10;95.20
6008;DHT22;3032;49.484;11.112;2023-05-19T03:36:46;13.10;95.30
6008;DHT22;3032;49.484;11.112;2023-05-19T03:39:14;13.20;95.10
6008;DHT22;3032;49.484;11.112;2023-05-19T03:41:40;13.40;95.10
6008;DHT22;3032;49.484;11.112;2023-05-19T03:44:06;13.40;94.90
6008;DHT22;3032;49.484;11.112;2023-05-19T03:46:31;13.50;94.60
6008;DHT22;3032;49.484;11.112;2023-05-19T03:48:57;13.50;95.70
6008;DHT22;3032;49.484;11.112;2023-05-19T03:51:22;13.60;95.60
6008;DHT22;3032;49.484;11.112;2023-05-19T03:53:48;13.70;96.00
6008;DHT22;3032;49.484;11.112;2023-05-19T03:56:14;13.70;95.60
6008;DHT22;3032;49.484;11.112;2023-05-19T03:58:41;13.80;95.50
6008;DHT22;3032;49.484;11.112;2023-05-19T04:01:09;13.80;95.70
6008;DHT22;3032;49.484;11.112;2023-05-19T04:03:34;13.70;95.70
6008;DHT22;3032;49.484;11.112;2023-05-19T04:06:00;13.60;95.90
6008;DHT22;3032;49.484;11.112;2023-05-19T04:08:25;13.60;96.30
6008;DHT22;3032;49.484;11.112;2023-05-19T04:10:51;13.70;95.70
6008;DHT22;3032;49.484;11.112;2023-05-19T04:13:17;13.80;95.50
6008;DHT22;3032;49.484;11.112;2023-05-19T04:15:42;13.80;95.10
6008;DHT22;3032;49.484;11.112;2023-05-19T04:18:08;13.80;95.00
6008;DHT22;3032;49.484;11.112;2023-05-19T04:20:33;13.90;95.40
6008;DHT22;3032;49.484;11.112;2023-05-19T04:22:59;14.00;95.60
6008;DHT22;3032;49.484;11.112;2023-05-19T04:25:24;14.10;95.80
6008;DHT22;3032;49.484;11.112;2023-05-19T04:27:52;14.20;96.30
6008;DHT22;3032;49.484;11.112;2023-05-19T04:30:18;14.30;96.10
6008;DHT22;3032;49.484;11.112;2023-05-19T04:32:47;14.30;95.60
6008;DHT22;3032;49.484;11.112;2023-05-19T04:35:14;14.30;95.60
6008;DHT22;3032;49.484;11.112;2023-05-19T04:37:42;14.30;96.00
6008;DHT22;3032;49.484;11.112;2023-05-19T04:40:11;14.30;95.90
6008;DHT22;3032;49.484;11.112;2023-05-19T04:42:36;14.30;96.20
6008;DHT22;3032;49.484;11.112;2023-05-19T04:45:06;14.40;96.00
6008;DHT22;3032;49.484;11.112;2023-05-19T04:47:33;14.60;96.30
6008;DHT22;3032;49.484;11.112;2023-05-19T04:50:01;14.80;96.70
6008;DHT22;3032;49.484;11.112;2023-05-19T04:52:27;14.60;96.30
6008;DHT22;3032;49.484;11.112;2023-05-19T04:54:53;14.70;96.10
6008;DHT22;3032;49.484;11.112;2023-05-19T04:57:18;14.70;96.00
6008;DHT22;3032;49.484;11.112;2023-05-19T04:59:44;14.90;95.70
6008;DHT22;3032;49.484;11.112;2023-05-19T05:02:10;15.00;95.20
6008;DHT22;3032;49.484;11.112;2023-05-19T05:04:36;15.10;95.10
6008;DHT22;3032;49.484;11.112;2023-05-19T05:07:04;15.10;95.00
6008;DHT22;3032;49.484;11.112;2023-05-19T05:09:30;15.10;95.20
6008;DHT22;3032;49.484;11.112;2023-05-19T05:11:56;15.30;95.00
6008;DHT22;3032;49.484;11.112;2023-05-19T05:14:22;15.40;94.80
6008;DHT22;3032;49.484;11.112;2023-05-19T05:16:48;15.30;94.50
6008;DHT22;3032;49.484;11.112;2023-05-19T05:19:14;15.30;94.80
6008;DHT22;3032;49.484;11.112;2023-05-19T05:21:40;15.30;94.70
6008;DHT22;3032;49.484;11.112;2023-05-19T05:24:07;15.50;94.90
6008;DHT22;3032;49.484;11.112;2023-05-19T05:26:34;15.60;94.50
6008;DHT22;3032;49.484;11.112;2023-05-19T05:29:00;15.50;94.50
6008;DHT22;3032;49.484;11.112;2023-05-19T05:31:25;15.60;94.10
6008;DHT22;3032;49.484;11.112;2023-05-19T05:33:51;15.70;94.00
6008;DHT22;3032;49.484;11.112;2023-05-19T05:36:16;15.60;93.40
6008;DHT22;3032;49.484;11.112;2023-05-19T05:38:42;15.60;93.70
6008;DHT22;3032;49.484;11.112;2023-05-19T05:41:07;15.80;93.30
6008;DHT22;3032;49.484;11.112;2023-05-19T05:43:33;16.20;93.30
6008;DHT22;3032;49.484;11.112;2023-05-19T05:45:59;16.50;92.70
6008;DHT22;3032;49.484;11.112;2023-05-19T05:48:25;17.00;92.40
6008;DHT22;3032;49.484;11.112;2023-05-19T05:50:51;17.30;91.50
6008;DHT22;3032;49.484;11.112;2023-05-19T05:53:19;17.20;91.00
6008;DHT22;3032;49.484;11.112;2023-05-19T05:55:48;16.80;91.40
6008;DHT22;3032;49.484;11.112;2023-05-19T05:58:14;15.70;91.70
6008;DHT22;3032;49.484;11.112;2023-05-19T06:00:41;15.20;93.10
6008;DHT22;3032;49.484;11.112;2023-05-19T06:03:08;15.60;93.10
6008;DHT22;3032;49.484;11.112;2023-05-19T06:05:34;16.60;92.00
6008;DHT22;3032;49.484;11.112;2023-05-19T06:08:00;17.20;91.40
6008;DHT22;3032;49.484;11.112;2023-05-19T06:10:26;17.70;90.10
6008;DHT22;3032;49.484;11.112;2023-05-19T06:12:52;17.40;90.30
6008;DHT22;3032;49.484;11.112;2023-05-19T06:15:18;16.60;90.40
6008;DHT22;3032;49.484;11.112;2023-05-19T06:17:43;16.80;91.60
6008;DHT22;3032;49.484;11.112;2023-05-19T06:20:09;16.40;90.70
6008;DHT22;3032;49.484;11.112;2023-05-19T06:22:35;15.40;92.10
6008;DHT22;3032;49.484;11.112;2023-05-19T06:25:01;15.30;92.30
6008;DHT22;3032;49.484;11.112;2023-05-19T06:27:28;15.10;92.70
6008;DHT22;3032;49.484;11.112;2023-05-19T06:29:53;14.90;93.40
6008;DHT22;3032;49.484;11.112;2023-05-19T06:32:19;15.10;93.40
6008;DHT22;3032;49.484;11.112;2023-05-19T06:34:45;15.40;93.40
6008;DHT22;3032;49.484;11.112;2023-05-19T06:37:10;16.10;92.60
6008;DHT22;3032;49.484;11.112;2023-05-19T06:39:37;16.80;91.60
6008;DHT22;3032;49.484;11.112;2023-05-19T06:42:02;17.20;90.90
6008;DHT22;3032;49.484;11.112;2023-05-19T06:44:28;17.30;90.40
6008;DHT22;3032;49.484;11.112;2023-05-19T06:46:54;17.90;90.10
6008;DHT22;3032;49.484;11.112;2023-05-19T06:49:19;18.20;88.70
6008;DHT22;3032;49.484;11.112;2023-05-19T06:51:45;17.60;89.50
6008;DHT22;3032;49.484;11.112;2023-05-19T06:54:10;16.10;90.80
6008;DHT22;3032;49.484;11.112;2023-05-19T06:56:37;16.30;91.10
6008;DHT22;3032;49.484;11.112;2023-05-19T06:59:02;16.10;91.50
6008;DHT22;3032;49.484;11.112;2023-05-19T07:01:28;16.00;91.90
6008;DHT22;3032;49.484;11.112;2023-05-19T07:03:54;16.00;91.60
6008;DHT22;3032;49.484;11.112;2023-05-19T07:06:20;15.60;92.00
6008;DHT22;3032;49.484;11.112;2023-05-19T07:08:45;15.60;92.80
6008;DHT22;3032;49.484;11.112;2023-05-19T07:11:11;15.90;92.40
6008;DHT22;3032;49.484;11.112;2023-05-19T07:13:36;16.70;91.40
6008;DHT22;3032;49.484;11.112;2023-05-19T07:16:02;16.60;91.60
6008;DHT22;3032;49.484;11.112;2023-05-19T07:18:28;17.10;91.00
6008;DHT22;3032;49.484;11.112;2023-05-19T07:20:56;17.30;90.80
6008;DHT22;3032;49.484;11.112;2023-05-19T07:23:22;17.70;90.80
6008;DHT22;3032;49.484;11.112;2023-05-19T07:25:48;17.70;89.80
6008;DHT22;3032;49.484;11.112;2023-05-19T07:28:14;17.70;90.50
6008;DHT22;3032;49.484;11.112;2023-05-19T07:30:39;17.80;89.30
6008;DHT22;3032;49.484;11.112;2023-05-19T07:33:05;18.10;90.10
6008;DHT22;3032;49.484;11.112;2023-05-19T07:35:31;18.70;89.10
6008;DHT22;3032;49.484;11.112;2023-05-19T07:37:57;19.10;87.80
6008;DHT22;3032;49.484;11.112;2023-05-19T07:40:22;20.20;84.40
6008;DHT22;3032;49.484;11.112;2023-05-19T07:42:48;19.50;85.20
6008;DHT22;3032;49.484;11.112;2023-05-19T07:45:14;20.00;83.60
6008;DHT22;3032;49.484;11.112;2023-05-19T07:47:40;20.30;83.90
6008;DHT22;3032;49.484;11.112;2023-05-19T07:50:06;22.00;80.00
6008;DHT22;3032;49.484;11.112;2023-05-19T07:52:31;21.70;77.90
6008;DHT22;3032;49.484;11.112;2023-05-19T07:54:58;21.30;79.30
6008;DHT22;3032;49.484;11.112;2023-05-19T07:57:23;21.80;78.80
6008;DHT22;3032;49.484;11.112;2023-05-19T07:59:49;22.40;76.90
6008;DHT22;3032;49.484;11.112;2023-05-19T08:02:14;22.70;76.10
6008;DHT22;3032;49.484;11.112;2023-05-19T08:04:40;22.20;74.20
6008;DHT22;3032;49.484;11.112;2023-05-19T08:07:06;22.50;75.50
6008;DHT22;3032;49.484;11.112;2023-05-19T08:09:31;22.90;74.50
6008;DHT22;3032;49.484;11.112;2023-05-19T08:11:57;22.30;73.30
6008;DHT22;3032;49.484;11.112;2023-05-19T08:14:22;21.10;74.40
6008;DHT22;3032;49.484;11.112;2023-05-19T08:16:48;21.00;75.10
6008;DHT22;3032;49.484;11.112;2023-05-19T08:19:14;20.40;75.20
6008;DHT22;3032;49.484;11.112;2023-05-19T08:21:40;19.60;76.30
6008;DHT22;3032;49.484;11.112;2023-05-19T08:24:07;19.00;77.10
6008;DHT22;3032;49.484;11.112;2023-05-19T08:26:33;18.80;80.10
6008;DHT22;3032;49.484;11.112;2023-05-19T08:28:59;17.10;83.60
6008;DHT22;3032;49.484;11.112;2023-05-19T08:31:24;17.20;84.50
6008;DHT22;3032;49.484;11.112;2023-05-19T08:33:50;17.40;83.30
6008;DHT22;3032;49.484;11.112;2023-05-19T08:36:16;17.80;85.10
6008;DHT22;3032;49.484;11.112;2023-05-19T08:38:41;18.40;84.50
6008;DHT22;3032;49.484;11.112;2023-05-19T08:41:07;18.80;82.50
6008;DHT22;3032;49.484;11.112;2023-05-19T08:43:33;18.20;83.70
6008;DHT22;3032;49.484;11.112;2023-05-19T08:45:59;18.40;82.00
6008;DHT22;3032;49.484;11.112;2023-05-19T08:48:28;18.40;82.50
6008;DHT22;3032;49.484;11.112;2023-05-19T08:53:29;18.00;82.80
6008;DHT22;3032;49.484;11.112;2023-05-19T08:56:11;18.30;82.50
6008;DHT22;3032;49.484;11.112;2023-05-19T08:58:40;18.50;81.00
6008;DHT22;3032;49.484;11.112;2023-05-19T09:01:08;18.60;81.10
6008;DHT22;3032;49.484;11.112;2023-05-19T09:03:34;18.50;81.10
6008;DHT22;3032;49.484;11.112;2023-05-19T09:06:06;18.40;80.80
6008;DHT22;3032;49.484;11.112;2023-05-19T09:08:39;18.40;83.30
6008;DHT22;3032;49.484;11.112;2023-05-19T09:11:05;18.00;83.60
6008;DHT22;3032;49.484;11.112;2023-05-19T09:13:31;18.70;82.50
6008;DHT22;3032;49.484;11.112;2023-05-19T09:15:57;18.10;83.70
6008;DHT22;3032;49.484;11.112;2023-05-19T09:18:26;18.30;82.30
6008;DHT22;3032;49.484;11.112;2023-05-19T09:20:56;18.30;83.20
6008;DHT22;3032;49.484;11.112;2023-05-19T09:23:29;17.70;83.30
6008;DHT22;3032;49.484;11.112;2023-05-19T09:25:55;17.80;84.50
6008;DHT22;3032;49.484;11.112;2023-05-19T09:28:25;18.00;83.10
6008;DHT22;3032;49.484;11.112;2023-05-19T09:31:02;17.60;83.60
6008;DHT22;3032;49.484;11.112;2023-05-19T09:33:28;17.10;84.60
6008;DHT22;3032;49.484;11.112;2023-05-19T09:35:55;17.50;85.20
6008;DHT22;3032;49.484;11.112;2023-05-19T09:38:24;17.60;85.40
6008;DHT22;3032;49.484;11.112;2023-05-19T09:40:55;17.50;84.50
6008;DHT22;3032;49.484;11.112;2023-05-19T09:43:21;17.90;85.90
6008;DHT22;3032;49.484;11.112;2023-05-19T09:45:47;18.30;84.50
6008;DHT22;3032;49.484;11.112;2023-05-19T09:48:14;18.40;83.60
6008;DHT22;3032;49.484;11.112;2023-05-19T09:50:42;17.40;83.90
6008;DHT22;3032;49.484;11.112;2023-05-19T09:53:08;17.70;83.20
6008;DHT22;3032;49.484;11.112;2023-05-19T09:55:36;18.30;83.50
6008;DHT22;3032;49.484;11.112;2023-05-19T09:58:03;19.10;83.60
6008;DHT22;3032;49.484;11.112;2023-05-19T10:00:30;19.20;81.00
6008;DHT22;3032;49.484;11.112;2023-05-19T10:02:57;18.90;80.00
6008;DHT22;3032;49.484;11.112;2023-05-19T10:05:25;18.60;81.00
6008;DHT22;3032;49.484;11.112;2023-05-19T10:07:53;19.40;82.30
6008;DHT22;3032;49.484;11.112;2023-05-19T10:10:20;19.80;81.70
6008;DHT22;3032;49.484;11.112;2023-05-19T10:12:49;20.70;77.90
6008;DHT22;3032;49.484;11.112;2023-05-19T10:15:16;21.00;77.30
6008;DHT22;3032;49.484;11.112;2023-05-19T10:17:43;20.70;77.10
6008;DHT22;3032;49.484;11.112;2023-05-19T10:20:13;20.40;77.90
6008;DHT22;3032;49.484;11.112;2023-05-19T10:22:40;20.10;76.80
6008;DHT22;3032;49.484;11.112;2023-05-19T10:25:07;19.40;78.80
6008;DHT22;3032;49.484;11.112;2023-05-19T10:27:39;19.60;78.60
6008;DHT22;3032;49.484;11.112;2023-05-19T10:30:12;19.80;79.20
6008;DHT22;3032;49.484;11.112;2023-05-19T10:32:40;20.10;78.50
6008;DHT22;3032;49.484;11.112;2023-05-19T10:40:22;22.20;74.50
6008;DHT22;3032;49.484;11.112;2023-05-19T10:45:21;22.10;70.30
6008;DHT22;3032;49.484;11.112;2023-05-19T10:47:49;21.50;72.30
6008;DHT22;3032;49.484;11.112;2023-05-19T10:50:15;20.70;73.70
6008;DHT22;3032;49.484;11.112;2023-05-19T10:52:41;20.80;72.80
6008;DHT22;3032;49.484;11.112;2023-05-19T10:55:11;20.60;73.40
6008;DHT22;3032;49.484;11.112;2023-05-19T10:57:52;20.10;74.60
6008;DHT22;3032;49.484;11.112;2023-05-19T11:00:29;19.80;75.10
6008;DHT22;3032;49.484;11.112;2023-05-19T11:03:14;19.50;75.60
6008;DHT22;3032;49.484;11.112;2023-05-19T11:05:40;19.40;76.10
6008;DHT22;3032;49.484;11.112;2023-05-19T11:08:10;20.20;77.50
6008;DHT22;3032;49.484;11.112;2023-05-19T11:10:36;20.60;75.30
6008;DHT22;3032;49.484;11.112;2023-05-19T11:13:03;20.50;74.00
6008;DHT22;3032;49.484;11.112;2023-05-19T11:15:33;20.80;73.40
6008;DHT22;3032;49.484;11.112;2023-05-19T11:18:00;21.40;71.60
6008;DHT22;3032;49.484;11.112;2023-05-19T11:20:27;22.30;71.50
6008;DHT22;3032;49.484;11.112;2023-05-19T11:23:07;23.60;70.70
6008;DHT22;3032;49.484;11.112;2023-05-19T11:25:49;23.00;69.10
6008;DHT22;3032;49.484;11.112;2023-05-19T11:28:22;22.20;71.00
6008;DHT22;3032;49.484;11.112;2023-05-19T11:30:56;22.60;70.10
6008;DHT22;3032;49.484;11.112;2023-05-19T11:33:24;23.40;68.10
6008;DHT22;3032;49.484;11.112;2023-05-19T11:35:54;22.40;69.70
6008;DHT22;3032;49.484;11.112;2023-05-19T11:38:23;23.50;70.70
6008;DHT22;3032;49.484;11.112;2023-05-19T11:40:52;24.40;66.80
6008;DHT22;3032;49.484;11.112;2023-05-19T11:43:18;24.50;65.50
6008;DHT22;3032;49.484;11.112;2023-05-19T11:45:44;24.00;66.40
6008;DHT22;3032;49.484;11.112;2023-05-19T11:48:13;23.60;67.10
6008;DHT22;3032;49.484;11.112;2023-05-19T11:50:40;24.60;64.50
6008;DHT22;3032;49.484;11.112;2023-05-19T11:53:06;24.70;65.20
6008;DHT22;3032;49.484;11.112;2023-05-19T11:55:32;25.80;63.60
6008;DHT22;3032;49.484;11.112;2023-05-19T11:57:58;26.30;63.00
6008;DHT22;3032;49.484;11.112;2023-05-19T12:00:25;26.70;61.00
6008;DHT22;3032;49.484;11.112;2023-05-19T12:02:51;24.30;61.30
6008;DHT22;3032;49.484;11.112;2023-05-19T12:05:21;23.30;63.60
6008;DHT22;3032;49.484;11.112;2023-05-19T12:07:47;24.30;64.80
6008;DHT22;3032;49.484;11.112;2023-05-19T12:10:26;24.60;62.10
6008;DHT22;3032;49.484;11.112;2023-05-19T12:12:53;24.60;61.80
6008;DHT22;3032;49.484;11.112;2023-05-19T12:15:19;24.70;62.10
6008;DHT22;3032;49.484;11.112;2023-05-19T12:17:59;23.70;63.60
6008;DHT22;3032;49.484;11.112;2023-05-19T12:20:25;23.10;64.60
6008;DHT22;3032;49.484;11.112;2023-05-19T12:22:53;22.90;65.20
6008;DHT22;3032;49.484;11.112;2023-05-19T12:25:19;22.00;66.20
6008;DHT22;3032;49.484;11.112;2023-05-19T12:27:45;22.60;65.20
6008;DHT22;3032;49.484;11.112;2023-05-19T12:30:12;23.70;66.40
6008;DHT22;3032;49.484;11.112;2023-05-19T12:32:38;23.90;63.60
6008;DHT22;3032;49.484;11.112;2023-05-19T12:35:04;24.20;64.80
6008;DHT22;3032;49.484;11.112;2023-05-19T12:37:31;24.70;64.40
6008;DHT22;3032;49.484;11.112;2023-05-19T12:40:00;24.30;61.50
6008;DHT22;3032;49.484;11.112;2023-05-19T12:42:26;24.50;61.40
6008;DHT22;3032;49.484;11.112;2023-05-19T12:44:57;24.20;63.30
6008;DHT22;3032;49.484;11.112;2023-05-19T12:47:32;23.80;63.40
6008;DHT22;3032;49.484;11.112;2023-05-19T12:50:01;24.30;63.60
6008;DHT22;3032;49.484;11.112;2023-05-19T12:52:29;24.80;63.10
6008;DHT22;3032;49.484;11.112;2023-05-19T12:55:04;24.90;61.50
6008;DHT22;3032;49.484;11.112;2023-05-19T12:57:35;25.60;60.20
6008;DHT22;3032;49.484;11.112;2023-05-19T13:00:18;25.00;60.30
6008;DHT22;3032;49.484;11.112;2023-05-19T13:02:57;25.70;60.00
6008;DHT22;3032;49.484;11.112;2023-05-19T13:05:24;26.00;58.20
6008;DHT22;3032;49.484;11.112;2023-05-19T13:08:10;25.20;58.90
6008;DHT22;3032;49.484;11.112;2023-05-19T13:10:37;25.30;59.90
6008;DHT22;3032;49.484;11.112;2023-05-19T13:13:03;25.50;60.10
6008;DHT22;3032;49.484;11.112;2023-05-19T13:15:31;26.30;58.30
6008;DHT22;3032;49.484;11.112;2023-05-19T13:17:59;27.00;58.50
6008;DHT22;3032;49.484;11.112;2023-05-19T13:20:25;26.00;58.10
6008;DHT22;3032;49.484;11.112;2023-05-19T13:22:51;25.70;59.80
6008;DHT22;3032;49.484;11.112;2023-05-19T13:25:17;26.10;59.40
6008;DHT22;3032;49.484;11.112;2023-05-19T13:27:46;25.80;58.30
6008;DHT22;3032;49.484;11.112;2023-05-19T13:30:12;25.80;59.70
6008;DHT22;3032;49.484;11.112;2023-05-19T13:32:37;26.70;58.00
6008;DHT22;3032;49.484;11.112;2023-05-19T13:35:03;25.90;57.30
6008;DHT22;3032;49.484;11.112;2023-05-19T13:37:29;24.30;57.70
6008;DHT22;3032;49.484;11.112;2023-05-19T13:39:54;23.50;60.10
6008;DHT22;3032;49.484;11.112;2023-05-19T13:42:22;23.20;61.60
6008;DHT22;3032;49.484;11.112;2023-05-19T13:44:47;23.60;60.70
6008;DHT22;3032;49.484;11.112;2023-05-19T13:47:13;23.80;61.20
6008;DHT22;3032;49.484;11.112;2023-05-19T13:49:39;23.20;60.50
6008;DHT22;3032;49.484;11.112;2023-05-19T13:52:05;23.20;60.40
6008;DHT22;3032;49.484;11.112;2023-05-19T13:54:31;23.00;62.80
6008;DHT22;3032;49.484;11.112;2023-05-19T13:56:58;23.60;61.20
6008;DHT22;3032;49.484;11.112;2023-05-19T13:59:27;23.20;63.10
6008;DHT22;3032;49.484;11.112;2023-05-19T14:01:52;23.90;60.40
6008;DHT22;3032;49.484;11.112;2023-05-19T14:04:18;24.60;59.70
6008;DHT22;3032;49.484;11.112;2023-05-19T14:06:45;23.80;60.10
6008;DHT22;3032;49.484;11.112;2023-05-19T14:09:11;24.50;59.40
6008;DHT22;3032;49.484;11.112;2023-05-19T14:11:37;24.60;59.00
6008;DHT22;3032;49.484;11.112;2023-05-19T14:14:02;24.90;58.50
6008;DHT22;3032;49.484;11.112;2023-05-19T14:16:28;24.70;58.40
6008;DHT22;3032;49.484;11.112;2023-05-19T14:18:54;24.30;59.10
6008;DHT22;3032;49.484;11.112;2023-05-19T14:21:20;23.50;60.40
6008;DHT22;3032;49.484;11.112;2023-05-19T14:23:46;23.40;61.00
6008;DHT22;3032;49.484;11.112;2023-05-19T14:26:11;23.30;60.50
6008;DHT22;3032;49.484;11.112;2023-05-19T14:28:37;22.90;60.90
6008;DHT22;3032;49.484;11.112;2023-05-19T14:31:02;22.80;62.30
6008;DHT22;3032;49.484;11.112;2023-05-19T14:33:28;23.00;62.30
6008;DHT22;3032;49.484;11.112;2023-05-19T14:35:54;23.20;62.10
6008;DHT22;3032;49.484;11.112;2023-05-19T14:38:20;23.00;61.20
6008;DHT22;3032;49.484;11.112;2023-05-19T14:40:46;22.80;62.40
6008;DHT22;3032;49.484;11.112;2023-05-19T14:43:12;23.20;62.00
6008;DHT22;3032;49.484;11.112;2023-05-19T14:45:38;23.60;62.70
6008;DHT22;3032;49.484;11.112;2023-05-19T14:48:06;24.10;62.30
6008;DHT22;3032;49.484;11.112;2023-05-19T14:50:32;24.70;60.60
6008;DHT22;3032;49.484;11.112;2023-05-19T14:52:57;24.20;62.30
6008;DHT22;3032;49.484;11.112;2023-05-19T14:55:23;23.40;61.40
6008;DHT22;3032;49.484;11.112;2023-05-19T14:57:48;23.30;61.90
6008;DHT22;3032;49.484;11.112;2023-05-19T15:00:14;23.60;61.60
6008;DHT22;3032;49.484;11.112;2023-05-19T15:02:42;23.80;62.20
6008;DHT22;3032;49.484;11.112;2023-05-19T15:05:07;24.30;61.40
6008;DHT22;3032;49.484;11.112;2023-05-19T15:07:33;24.00;61.10
6008;DHT22;3032;49.484;11.112;2023-05-19T15:09:59;24.40;61.00
6008;DHT22;3032;49.484;11.112;2023-05-19T15:12:25;24.20;60.90
6008;DHT22;3032;49.484;11.112;2023-05-19T15:14:51;24.00;62.40
6008;DHT22;3032;49.484;11.112;2023-05-19T15:17:17;23.80;62.30
6008;DHT22;3032;49.484;11.112;2023-05-19T15:19:43;23.60;63.20
6008;DHT22;3032;49.484;11.112;2023-05-19T15:22:08;22.80;64.60
6008;DHT22;3032;49.484;11.112;2023-05-19T15:24:34;22.90;64.20
6008;DHT22;3032;49.484;11.112;2023-05-19T15:27:00;21.90;65.30
6008;DHT22;3032;49.484;11.112;2023-05-19T15:29:26;21.60;66.70
6008;DHT22;3032;49.484;11.112;2023-05-19T15:31:52;21.40;67.20
6008;DHT22;3032;49.484;11.112;2023-05-19T15:34:18;21.60;67.50
6008;DHT22;3032;49.484;11.112;2023-05-19T15:36:44;22.10;67.60
6008;DHT22;3032;49.484;11.112;2023-05-19T15:39:09;22.00;67.10
6008;DHT22;3032;49.484;11.112;2023-05-19T15:41:35;21.80;67.30
6008;DHT22;3032;49.484;11.112;2023-05-19T15:44:00;22.10;68.60
6008;DHT22;3032;49.484;11.112;2023-05-19T15:46:27;21.80;69.10
6008;DHT22;3032;49.484;11.112;2023-05-19T15:48:53;21.80;68.40
6008;DHT22;3032;49.484;11.112;2023-05-19T15:51:19;21.60;70.80
6008;DHT22;3032;49.484;11.112;2023-05-19T15:53:44;21.20;70.50
6008;DHT22;3032;49.484;11.112;2023-05-19T15:56:10;21.10;70.80
6008;DHT22;3032;49.484;11.112;2023-05-19T15:58:35;20.80;71.50
6008;DHT22;3032;49.484;11.112;2023-05-19T16:01:01;20.30;72.20
6008;DHT22;3032;49.484;11.112;2023-05-19T16:03:27;20.20;72.20
6008;DHT22;3032;49.484;11.112;2023-05-19T16:05:54;20.20;72.90
6008;DHT22;3032;49.484;11.112;2023-05-19T16:08:20;19.70;73.80
6008;DHT22;3032;49.484;11.112;2023-05-19T16:10:46;20.20;74.70
6008;DHT22;3032;49.484;11.112;2023-05-19T16:13:11;20.10;75.10